createdAt,value
2023-05-12T00:02:02.621Z,97810.31
2023-05-12T00:04:28.973Z,97808.06
2023-05-12T00:06:55.334Z,97818.09
2023-05-12T00:09:21.764Z,97814.75
2023-05-12T00:11:48.086Z,97806.13
2023-05-12T00:14:14.432Z,97814.03
2023-05-12T00:16:40.967Z,97819.19
2023-05-12T00:19:07.459Z,97822.03
2023-05-12T00:21:33.790Z,97823.78
2023-05-12T00:24:00.163Z,97820.22
2023-05-12T00:26:26.461Z,97822.56
2023-05-12T00:28:52.735Z,97813.44
2023-05-12T00:31:19.092Z,97825.34
2023-05-12T00:33:45.403Z,97823.41
2023-05-12T00:36:11.697Z,97823.91
2023-05-12T00:38:38.205Z,97822.75
2023-05-12T00:41:04.479Z,97823.22
2023-05-12T00:43:30.777Z,97832.72
2023-05-12T00:45:57.140Z,97834.81
2023-05-12T00:48:23.485Z,97832.63
2023-05-12T00:50:49.772Z,97837.38
2023-05-12T00:53:16.106Z,97838.63
2023-05-12T00:55:42.363Z,97842.59
2023-05-12T00:58:08.674Z,97842.00
2023-05-12T01:00:38.213Z,97835.28
2023-05-12T01:03:04.639Z,97844.56
2023-05-12T01:05:31.230Z,97842.16
2023-05-12T01:07:57.517Z,97847.91
2023-05-12T01:10:23.917Z,97842.25
2023-05-12T01:12:50.238Z,97839.84
2023-05-12T01:15:16.537Z,97844.56
2023-05-12T01:17:42.957Z,97842.16
2023-05-12T01:20:09.477Z,97851.19
2023-05-12T01:22:35.773Z,97855.09
2023-05-12T01:25:02.086Z,97849.44
2023-05-12T01:27:28.410Z,97847.03
2023-05-12T01:29:54.667Z,97844.59
2023-05-12T01:32:21.136Z,97854.66
2023-05-12T01:34:47.469Z,97848.75
2023-05-12T01:37:16.960Z,97861.50
2023-05-12T01:39:43.276Z,97861.94
2023-05-12T01:42:09.558Z,97862.19
2023-05-12T01:47:26.281Z,97866.09
2023-05-12T01:49:53.075Z,97865.53
2023-05-12T01:52:19.375Z,97867.59
2023-05-12T01:54:45.645Z,97866.78
2023-05-12T01:57:11.900Z,97873.38
2023-05-12T01:59:42.414Z,97870.94
2023-05-12T02:05:04.576Z,97876.13
2023-05-12T02:07:33.848Z,97879.03
2023-05-12T02:10:00.203Z,97877.44
2023-05-12T02:12:26.458Z,97874.19
2023-05-12T02:14:52.936Z,97874.41
2023-05-12T02:17:19.259Z,97879.97
2023-05-12T02:19:45.527Z,97874.88
2023-05-12T02:22:11.816Z,97869.78
2023-05-12T02:24:38.113Z,97865.50
2023-05-12T02:27:04.435Z,97868.41
2023-05-12T02:29:30.925Z,97877.63
2023-05-12T02:31:57.275Z,97874.38
2023-05-12T02:34:24.343Z,97872.78
2023-05-12T02:36:50.625Z,97872.19
2023-05-12T02:39:16.944Z,97870.59
2023-05-12T02:41:43.335Z,97871.59
2023-05-12T02:44:09.853Z,97878.78
2023-05-12T02:46:36.172Z,97872.06
2023-05-12T02:49:02.993Z,97867.81
2023-05-12T02:51:29.350Z,97868.03
2023-05-12T02:53:55.760Z,97869.06
2023-05-12T02:56:22.158Z,97873.78
2023-05-12T02:58:48.444Z,97872.19
2023-05-12T03:01:14.936Z,97872.66
2023-05-12T03:03:41.398Z,97871.03
2023-05-12T03:06:07.767Z,97880.81
2023-05-12T03:08:34.515Z,97880.28
2023-05-12T03:11:00.762Z,97881.28
2023-05-12T03:13:27.064Z,97885.78
2023-05-12T03:15:53.571Z,97878.88
2023-05-12T03:18:19.868Z,97884.19
2023-05-12T03:20:46.222Z,97884.41
2023-05-12T03:23:12.506Z,97884.66
2023-05-12T03:25:38.801Z,97885.66
2023-05-12T03:28:05.048Z,97885.09
2023-05-12T03:30:31.293Z,97884.28
2023-05-12T03:32:57.573Z,97889.84
2023-05-12T03:35:23.903Z,97897.81
2023-05-12T03:37:50.292Z,97890.84
2023-05-12T03:40:16.553Z,97888.44
2023-05-12T03:42:42.812Z,97886.00
2023-05-12T03:45:11.506Z,97895.81
2023-05-12T03:48:04.427Z,97897.09
2023-05-12T03:50:33.920Z,97899.75
2023-05-12T03:53:00.170Z,97897.31
2023-05-12T03:55:26.447Z,97897.53
2023-05-12T03:57:52.845Z,97900.41
2023-05-12T04:00:19.366Z,97897.16
2023-05-12T04:02:45.834Z,97899.25
2023-05-12T04:05:12.192Z,97898.44
2023-05-12T04:07:38.428Z,97898.69
2023-05-12T04:10:04.748Z,97894.38
2023-05-12T04:12:31.506Z,97903.41
2023-05-12T04:14:58.574Z,97903.41
2023-05-12T04:17:24.868Z,97902.81
2023-05-12T04:19:51.182Z,97896.69
2023-05-12T04:22:17.456Z,97900.16
2023-05-12T04:24:43.751Z,97903.25
2023-05-12T04:27:10.033Z,97907.53
2023-05-12T04:29:36.309Z,97911.22
2023-05-12T04:32:02.703Z,97912.84
2023-05-12T04:34:29.044Z,97919.19
2023-05-12T04:36:55.312Z,97916.53
2023-05-12T04:39:21.562Z,97920.22
2023-05-12T04:41:47.845Z,97921.84
2023-05-12T04:44:14.163Z,97921.84
2023-05-12T04:46:40.566Z,97920.81
2023-05-12T04:49:06.880Z,97931.44
2023-05-12T04:51:33.212Z,97936.50
2023-05-12T04:53:59.566Z,97941.03
2023-05-12T04:56:25.820Z,97937.34
2023-05-12T04:58:53.190Z,97935.50
2023-05-12T05:01:19.528Z,97938.94
2023-05-12T05:03:46.136Z,97944.25
2023-05-12T05:06:12.602Z,97947.72
2023-05-12T05:08:39.309Z,97945.91
2023-05-12T05:11:05.626Z,97955.47
2023-05-12T05:13:31.909Z,97952.81
2023-05-12T05:15:58.233Z,97958.94
2023-05-12T05:18:24.951Z,97964.03
2023-05-12T05:20:58.595Z,97965.66
2023-05-12T05:23:35.588Z,97960.91
2023-05-12T05:26:09.986Z,97966.03
2023-05-12T05:28:36.418Z,97968.47
2023-05-12T05:31:02.795Z,97969.06
2023-05-12T05:33:29.107Z,97979.44
2023-05-12T05:35:55.556Z,97982.66
2023-05-12T05:38:21.909Z,97987.78
2023-05-12T05:40:53.596Z,97985.69
2023-05-12T05:43:20.818Z,97986.28
2023-05-12T05:45:47.191Z,97986.88
2023-05-12T05:48:16.828Z,97981.09
2023-05-12T05:50:50.692Z,97982.72
2023-05-12T05:53:17.338Z,97977.78
2023-05-12T05:55:50.952Z,97981.81
2023-05-12T05:58:18.551Z,97982.88
2023-05-12T06:00:44.963Z,97991.06
2023-05-12T06:03:11.331Z,97999.25
2023-05-12T06:05:37.746Z,98002.50
2023-05-12T06:08:04.249Z,98004.59
2023-05-12T06:10:30.574Z,98001.00
2023-05-12T06:12:57.394Z,98008.00
2023-05-12T06:15:26.333Z,98004.63
2023-05-12T06:17:52.752Z,98015.63
2023-05-12T06:20:19.363Z,98009.19
2023-05-12T06:22:45.818Z,98008.91
2023-05-12T06:25:12.261Z,98023.00
2023-05-12T06:27:38.593Z,98011.69
2023-05-12T06:30:05.097Z,98016.41
2023-05-12T06:32:39.163Z,98022.78
2023-05-12T06:35:05.531Z,98032.00
2023-05-12T06:37:31.865Z,98033.25
2023-05-12T06:39:58.213Z,98041.41
2023-05-12T06:42:35.677Z,98047.16
2023-05-12T06:45:02.033Z,98050.53
2023-05-12T06:47:28.530Z,98055.00
2023-05-12T06:49:54.973Z,98074.75
2023-05-12T06:52:21.276Z,98074.38
2023-05-12T06:54:47.535Z,98079.13
2023-05-12T06:57:13.936Z,98082.66
2023-05-12T06:59:40.258Z,98077.66
2023-05-12T07:02:06.562Z,98084.66
2023-05-12T07:04:32.907Z,98074.03
2023-05-12T07:06:59.167Z,98071.09
2023-05-12T07:09:25.475Z,98065.75
2023-05-12T07:11:51.726Z,98069.00
2023-05-12T07:14:18.448Z,98064.78
2023-05-12T07:16:46.404Z,98065.91
2023-05-12T07:19:13.007Z,98071.59
2023-05-12T07:21:39.378Z,98073.25
2023-05-12T07:24:05.666Z,98073.31
2023-05-12T07:26:31.980Z,98066.41
2023-05-12T07:28:58.433Z,98073.47
2023-05-12T07:31:24.882Z,98072.44
2023-05-12T07:33:51.393Z,98075.16
2023-05-12T07:36:17.697Z,98075.78
2023-05-12T07:38:43.974Z,98078.84
2023-05-12T07:41:18.195Z,98084.81
2023-05-12T07:43:45.093Z,98087.59
2023-05-12T07:46:11.423Z,98101.41
2023-05-12T07:48:37.811Z,98105.00
2023-05-12T07:51:04.138Z,98102.16
2023-05-12T07:53:30.411Z,98103.88
2023-05-12T07:55:56.723Z,98106.63
2023-05-12T07:58:23.565Z,98099.22
2023-05-12T08:00:50.131Z,98108.97
2023-05-12T08:03:16.576Z,98117.34
2023-05-12T08:05:43.091Z,98113.63
2023-05-12T08:08:09.438Z,98116.06
2023-05-12T08:10:35.768Z,98120.97
2023-05-12T08:13:02.074Z,98120.78
2023-05-12T08:15:28.371Z,98125.41
2023-05-12T08:17:54.856Z,98138.63
2023-05-12T08:20:21.264Z,98144.09
2023-05-12T08:22:47.566Z,98165.69
2023-05-12T08:25:13.885Z,98175.72
2023-05-12T08:27:40.431Z,98187.88
2023-05-12T08:30:06.996Z,98188.22
2023-05-12T08:32:33.435Z,98193.63
2023-05-12T08:35:00.099Z,98199.31
2023-05-12T08:37:26.549Z,98227.06
2023-05-12T08:39:52.865Z,98233.81
2023-05-12T08:42:19.327Z,98238.38
2023-05-12T08:44:45.661Z,98273.88
2023-05-12T08:47:12.321Z,98292.38
2023-05-12T08:49:38.641Z,98303.31
2023-05-12T08:52:05.003Z,98281.69
2023-05-12T08:54:31.475Z,98241.84
2023-05-12T08:59:27.374Z,98030.75
2023-05-12T09:01:53.860Z,98017.34
2023-05-12T09:04:20.261Z,98014.66
2023-05-12T09:06:46.883Z,98001.78
2023-05-12T09:09:13.160Z,98011.19
2023-05-12T09:11:39.520Z,98014.13
2023-05-12T09:14:05.804Z,98016.00
2023-05-12T09:16:32.220Z,98023.78
2023-05-12T09:18:58.583Z,98032.41
2023-05-12T09:21:24.934Z,98035.63
2023-05-12T09:23:51.283Z,98035.09
2023-05-12T09:26:17.807Z,98042.63
2023-05-12T09:28:44.110Z,98033.22
2023-05-12T09:31:11.178Z,98042.63
2023-05-12T09:33:38.795Z,98050.13
2023-05-12T09:36:05.406Z,98044.50
2023-05-12T09:38:31.723Z,98041.25
2023-05-12T09:40:58.231Z,98046.13
2023-05-12T09:43:24.630Z,98053.91
2023-05-12T09:45:50.966Z,98056.59
2023-05-12T09:48:17.572Z,98061.41
2023-05-12T09:50:47.282Z,98062.22
2023-05-12T09:53:13.939Z,98062.75
2023-05-12T09:55:40.214Z,98060.34
2023-05-12T09:58:06.532Z,98071.09
2023-05-12T10:00:48.896Z,98062.22
2023-05-12T10:03:19.183Z,98071.91
2023-05-12T10:05:45.489Z,98064.34
2023-05-12T10:08:11.969Z,98064.09
2023-05-12T10:10:38.326Z,98061.94
2023-05-12T10:13:04.732Z,98060.88
2023-05-12T10:15:31.222Z,98052.81
2023-05-12T10:17:57.724Z,98060.34
2023-05-12T10:20:24.090Z,98057.38
2023-05-12T10:22:50.476Z,98046.91
2023-05-12T10:25:17.095Z,98058.75
2023-05-12T10:27:43.375Z,98052.81
2023-05-12T10:30:09.787Z,98049.03
2023-05-12T10:32:36.291Z,98047.97
2023-05-12T10:35:02.945Z,98046.88
2023-05-12T10:37:29.242Z,98044.75
2023-05-12T10:39:55.650Z,98022.16
2023-05-12T10:42:22.100Z,98053.34
2023-05-12T10:44:48.606Z,98032.63
2023-05-12T10:47:14.954Z,98012.47
2023-05-12T10:49:42.561Z,98038.28
2023-05-12T10:52:09.272Z,97995.81
2023-05-12T10:54:35.786Z,97994.44
2023-05-12T10:57:02.708Z,98002.50
2023-05-12T10:59:29.741Z,98002.78
2023-05-12T11:01:56.767Z,97983.19
2023-05-12T11:04:23.777Z,97969.97
2023-05-12T11:06:50.426Z,97967.28
2023-05-12T11:09:17.679Z,97959.50
2023-05-12T11:11:45.672Z,97963.81
2023-05-12T11:14:12.199Z,97951.16
2023-05-12T11:16:38.676Z,97958.19
2023-05-12T11:19:05.584Z,97962.19
2023-05-12T11:21:32.124Z,97957.63
2023-05-12T11:23:58.480Z,97953.88
2023-05-12T11:26:24.802Z,97956.56
2023-05-12T11:28:51.165Z,97955.19
2023-05-12T11:31:17.573Z,97945.25
2023-05-12T11:33:43.875Z,97938.00
2023-05-12T11:36:10.223Z,97952.25
2023-05-12T11:38:36.730Z,97944.72
2023-05-12T11:41:03.241Z,97939.34
2023-05-12T11:43:29.524Z,97932.09
2023-05-12T11:45:55.898Z,97942.56
2023-05-12T11:48:22.427Z,97933.16
2023-05-12T11:50:49.293Z,97939.06
2023-05-12T11:53:15.702Z,97934.22
2023-05-12T11:55:42.458Z,97939.03
2023-05-12T11:58:08.860Z,97934.47
2023-05-12T12:00:35.181Z,97937.16
2023-05-12T12:03:01.653Z,97928.53
2023-05-12T12:05:28.750Z,97944.13
2023-05-12T12:07:55.138Z,97934.16
2023-05-12T12:10:21.458Z,97943.59
2023-05-12T12:12:49.043Z,97945.16
2023-05-12T12:15:15.508Z,97941.66
2023-05-12T12:17:41.852Z,97927.16
2023-05-12T12:20:08.357Z,97934.44
2023-05-12T12:22:34.884Z,97927.72
2023-05-12T12:25:01.198Z,97933.13
2023-05-12T12:27:27.551Z,97940.94
2023-05-12T12:29:54.209Z,97946.06
2023-05-12T12:32:20.547Z,97938.53
2023-05-12T12:34:46.871Z,97943.63
2023-05-12T12:37:13.149Z,97953.88
2023-05-12T12:39:39.433Z,97943.91
2023-05-12T12:42:05.706Z,97937.19
2023-05-12T12:44:32.287Z,97950.91
2023-05-12T12:46:58.719Z,97951.97
2023-05-12T12:49:25.241Z,97943.63
2023-05-12T12:51:51.593Z,97943.63
2023-05-12T12:54:17.914Z,97950.09
2023-05-12T12:56:44.284Z,97937.75
2023-05-12T12:59:10.815Z,97934.22
2023-05-12T13:01:37.226Z,97940.41
2023-05-12T13:04:03.584Z,97946.59
2023-05-12T13:06:30.243Z,97945.81
2023-05-12T13:09:02.869Z,97929.66
2023-05-12T13:11:29.570Z,97938.81
2023-05-12T13:13:56.646Z,97937.75
2023-05-12T13:16:22.994Z,97926.16
2023-05-12T13:18:49.429Z,97935.06
2023-05-12T13:21:15.893Z,97935.06
2023-05-12T13:23:42.695Z,97933.16
2023-05-12T13:26:09.077Z,97924.00
2023-05-12T13:28:35.478Z,97929.41
2023-05-12T13:31:01.966Z,97926.69
2023-05-12T13:33:28.434Z,97926.97
2023-05-12T13:35:54.729Z,97928.31
2023-05-12T13:38:21.065Z,97925.88
2023-05-12T13:40:47.462Z,97919.97
2023-05-12T13:43:13.929Z,97924.00
2023-05-12T13:45:40.261Z,97913.53
2023-05-12T13:48:06.644Z,97913.00
2023-05-12T13:50:33.726Z,97913.53
2023-05-12T13:53:00.218Z,97904.38
2023-05-12T13:55:27.339Z,97910.28
2023-05-12T13:57:53.860Z,97906.50
2023-05-12T14:00:21.212Z,97904.38
2023-05-12T14:02:47.679Z,97895.50
2023-05-12T14:05:14.266Z,97899.53
2023-05-12T14:07:40.634Z,97901.69
2023-05-12T14:10:07.134Z,97908.94
2023-05-12T14:12:33.452Z,97896.31
2023-05-12T14:15:15.866Z,97906.25
2023-05-12T14:17:47.063Z,97897.41
2023-05-12T14:20:13.496Z,97907.34
2023-05-12T14:22:39.873Z,97907.63
2023-05-12T14:25:06.271Z,97910.59
2023-05-12T14:27:32.717Z,97913.00
2023-05-12T14:29:59.090Z,97913.78
2023-05-12T14:32:25.744Z,97909.22
2023-05-12T14:34:52.086Z,97914.03
2023-05-12T14:37:18.446Z,97898.19
2023-05-12T14:39:44.816Z,97900.34
2023-05-12T14:42:11.299Z,97901.13
2023-05-12T14:44:37.705Z,97904.38
2023-05-12T14:47:03.998Z,97893.06
2023-05-12T14:49:32.559Z,97892.28
2023-05-12T14:51:58.902Z,97891.47
2023-05-12T14:54:26.101Z,97879.91
2023-05-12T14:56:52.793Z,97881.53
2023-05-12T14:59:19.182Z,97879.09
2023-05-12T15:01:45.598Z,97894.16
2023-05-12T15:04:12.639Z,97889.34
2023-05-12T15:06:39.036Z,97901.69
2023-05-12T15:09:05.455Z,97894.97
2023-05-12T15:11:31.783Z,97899.25
2023-05-12T15:14:00.046Z,97901.13
2023-05-12T15:16:26.415Z,97909.22
2023-05-12T15:18:52.927Z,97905.44
2023-05-12T15:21:19.552Z,97905.72
2023-05-12T15:23:45.888Z,97905.16
2023-05-12T15:26:26.987Z,97903.00
2023-05-12T15:28:58.184Z,97898.16
2023-05-12T15:31:24.826Z,97900.56
2023-05-12T15:33:51.131Z,97903.78
2023-05-12T15:36:17.470Z,97908.06
2023-05-12T15:38:44.712Z,97909.16
2023-05-12T15:41:14.917Z,97908.34
2023-05-12T15:43:41.315Z,97909.16
2023-05-12T15:46:07.888Z,97909.16
2023-05-12T15:48:34.215Z,97920.97
2023-05-12T15:51:00.514Z,97915.81
2023-05-12T15:53:26.829Z,97918.25
2023-05-12T15:55:53.187Z,97910.19
2023-05-12T15:58:19.555Z,97911.25
2023-05-12T16:00:45.888Z,97906.41
2023-05-12T16:03:12.273Z,97908.56
2023-05-12T16:05:38.859Z,97912.34
2023-05-12T16:08:05.248Z,97917.19
2023-05-12T16:10:31.516Z,97910.19
2023-05-12T16:12:57.763Z,97915.06
2023-05-12T16:15:24.021Z,97918.81
2023-05-12T16:17:50.318Z,97926.38
2023-05-12T16:20:16.721Z,97919.38
2023-05-12T16:22:43.187Z,97915.88
2023-05-12T16:25:09.455Z,97916.97
2023-05-12T16:27:35.711Z,97912.38
2023-05-12T16:30:02.323Z,97923.94
2023-05-12T16:32:28.611Z,97923.13
2023-05-12T16:34:55.135Z,97916.97
2023-05-12T16:37:21.423Z,97921.53
2023-05-12T16:39:47.709Z,97918.56
2023-05-12T16:42:13.967Z,97917.50
2023-05-12T16:44:40.353Z,97924.75
2023-05-12T16:47:06.707Z,97920.44
2023-05-12T16:49:33.049Z,97922.88
2023-05-12T16:51:59.549Z,97920.44
2023-05-12T16:54:25.850Z,97925.03
2023-05-12T16:56:52.260Z,97924.75
2023-05-12T16:59:19.651Z,97927.44
2023-05-12T17:01:46.049Z,97925.56
2023-05-12T17:04:12.455Z,97924.75
2023-05-12T17:06:39.094Z,97924.22
2023-05-12T17:09:05.759Z,97926.66
2023-05-12T17:11:32.128Z,97929.63
2023-05-12T17:13:58.731Z,97928.56
2023-05-12T17:16:25.292Z,97925.63
2023-05-12T17:21:20.876Z,97924.00
2023-05-12T17:23:47.243Z,97930.72
2023-05-12T17:26:13.886Z,97929.66
2023-05-12T17:28:40.320Z,97926.47
2023-05-12T17:31:06.713Z,97939.38
2023-05-12T17:33:33.605Z,97936.16
2023-05-12T17:36:10.954Z,97939.38
2023-05-12T17:38:39.300Z,97939.13
2023-05-12T17:41:05.655Z,97936.19
2023-05-12T17:43:31.938Z,97932.16
2023-05-12T17:45:58.231Z,97938.88
2023-05-12T17:48:24.479Z,97937.53
2023-05-12T17:50:50.791Z,97935.41
2023-05-12T17:53:17.461Z,97937.81
2023-05-12T17:55:43.816Z,97937.81
2023-05-12T17:58:10.187Z,97934.88
2023-05-12T18:00:36.614Z,97938.09
2023-05-12T18:03:03.066Z,97934.06
2023-05-12T18:05:29.522Z,97935.41
2023-05-12T18:07:56.018Z,97946.44
2023-05-12T18:10:22.449Z,97944.28
2023-05-12T18:12:48.902Z,97944.84
2023-05-12T18:15:15.362Z,97949.66
2023-05-12T18:17:41.992Z,97955.31
2023-05-12T18:20:08.549Z,97952.09
2023-05-12T18:22:34.928Z,97956.09
2023-05-12T18:25:01.252Z,97954.25
2023-05-12T18:27:27.865Z,97948.31
2023-05-12T18:29:54.233Z,97957.69
2023-05-12T18:32:20.736Z,97958.22
2023-05-12T18:34:47.184Z,97955.28
2023-05-12T18:37:13.517Z,97965.47
2023-05-12T18:39:42.867Z,97968.97
2023-05-12T18:42:09.225Z,97964.16
2023-05-12T18:44:35.610Z,97967.34
2023-05-12T18:47:02.085Z,97965.19
2023-05-12T18:49:28.459Z,97971.13
2023-05-12T18:51:54.869Z,97966.28
2023-05-12T18:54:21.336Z,97972.97
2023-05-12T18:56:47.849Z,97977.53
2023-05-12T18:59:14.975Z,97978.06
2023-05-12T19:01:41.446Z,97972.72
2023-05-12T19:04:07.858Z,97982.13
2023-05-12T19:06:34.196Z,97985.31
2023-05-12T19:09:01.120Z,97986.13
2023-05-12T19:11:27.441Z,97993.91
2023-05-12T19:13:54.095Z,97992.31
2023-05-12T19:16:20.423Z,97995.81
2023-05-12T19:18:46.779Z,97993.13
2023-05-12T19:21:13.144Z,97998.50
2023-05-12T19:23:39.844Z,98002.25
2023-05-12T19:26:06.189Z,98003.06
2023-05-12T19:28:32.899Z,98000.63
2023-05-12T19:30:59.234Z,98002.50
2023-05-12T19:33:25.661Z,98007.06
2023-05-12T19:35:52.028Z,98010.03
2023-05-12T19:38:18.366Z,98019.94
2023-05-12T19:40:44.730Z,98010.28
2023-05-12T19:43:11.159Z,98014.06
2023-05-12T19:45:37.754Z,98021.56
2023-05-12T19:48:04.352Z,98016.47
2023-05-12T19:50:30.759Z,98019.38
2023-05-12T19:52:57.388Z,98023.16
2023-05-12T19:55:23.740Z,98027.97
2023-05-12T19:57:50.152Z,98030.94
2023-05-12T20:00:16.680Z,98028.50
2023-05-12T20:02:43.041Z,98031.19
2023-05-12T20:05:09.561Z,98037.66
2023-05-12T20:07:35.872Z,98036.84
2023-05-12T20:10:02.227Z,98037.09
2023-05-12T20:12:28.537Z,98033.59
2023-05-12T20:14:54.826Z,98038.16
2023-05-12T20:17:21.223Z,98039.22
2023-05-12T20:19:47.550Z,98041.91
2023-05-12T20:22:13.864Z,98041.91
2023-05-12T20:24:40.153Z,98046.75
2023-05-12T20:27:06.492Z,98040.81
2023-05-12T20:29:33.025Z,98047.00
2023-05-12T20:31:59.281Z,98059.59
2023-05-12T20:34:25.585Z,98052.63
2023-05-12T20:36:51.860Z,98052.91
2023-05-12T20:39:18.151Z,98053.97
2023-05-12T20:41:44.511Z,98055.03
2023-05-12T20:44:11.148Z,98062.28
2023-05-12T20:46:38.429Z,98059.84
2023-05-12T20:49:04.938Z,98061.72
2023-05-12T20:51:31.582Z,98065.50
2023-05-12T20:53:57.943Z,98057.72
2023-05-12T20:56:24.282Z,98062.25
2023-05-12T20:58:50.748Z,98066.81
2023-05-12T21:01:17.301Z,98068.94
2023-05-12T21:03:43.801Z,98070.00
2023-05-12T21:06:10.356Z,98070.72
2023-05-12T21:08:36.736Z,98062.63
2023-05-12T21:11:10.319Z,98056.13
2023-05-12T21:13:38.719Z,98052.31
2023-05-12T21:16:05.437Z,98044.78
2023-05-12T21:18:31.924Z,98049.00
2023-05-12T21:20:58.455Z,98049.50
2023-05-12T21:23:24.908Z,98042.75
2023-05-12T21:25:51.712Z,98045.66
2023-05-12T21:28:18.052Z,98039.66
2023-05-12T21:30:50.653Z,98047.13
2023-05-12T21:33:17.080Z,98044.41
2023-05-12T21:35:43.775Z,98041.94
2023-05-12T21:38:10.832Z,98046.44
2023-05-12T21:40:37.457Z,98042.09
2023-05-12T21:43:03.792Z,98051.69
2023-05-12T21:45:30.170Z,98041.19
2023-05-12T21:47:56.517Z,98047.31
2023-05-12T21:50:23.108Z,98042.97
2023-05-12T21:52:49.508Z,98047.72
2023-05-12T21:55:15.882Z,98054.09
2023-05-12T21:57:42.346Z,98051.34
2023-05-12T22:00:09.539Z,98053.16
2023-05-12T22:02:36.183Z,98049.59
2023-05-12T22:05:02.648Z,98049.81
2023-05-12T22:07:28.960Z,98048.94
2023-05-12T22:09:55.349Z,98050.72
2023-05-12T22:12:21.672Z,98053.34
2023-05-12T22:14:51.121Z,98053.28
2023-05-12T22:17:17.397Z,98056.69
2023-05-12T22:19:43.734Z,98059.88
2023-05-12T22:22:10.225Z,98068.41
2023-05-12T22:24:37.017Z,98060.88
2023-05-12T22:27:03.317Z,98065.09
2023-05-12T22:29:29.807Z,98068.28
2023-05-12T22:31:56.179Z,98068.75
2023-05-12T22:34:22.593Z,98066.59
2023-05-12T22:36:48.883Z,98074.84
2023-05-12T22:39:15.326Z,98072.69
2023-05-12T22:41:41.647Z,98067.59
2023-05-12T22:44:08.029Z,98070.72
2023-05-12T22:46:34.657Z,98073.66
2023-05-12T22:49:01.028Z,98073.34
2023-05-12T22:51:27.410Z,98077.34
2023-05-12T22:53:53.736Z,98071.41
2023-05-12T22:56:20.315Z,98080.72
2023-05-12T22:58:48.536Z,98075.06
2023-05-12T23:01:15.304Z,98077.97
2023-05-12T23:03:41.626Z,98079.28
2023-05-12T23:06:07.935Z,98074.38
2023-05-12T23:08:34.236Z,98077.81
2023-05-12T23:11:00.543Z,98074.25
2023-05-12T23:13:26.846Z,98073.94
2023-05-12T23:15:53.175Z,98074.09
2023-05-12T23:18:19.602Z,98070.53
2023-05-12T23:20:45.908Z,98065.13
2023-05-12T23:23:12.212Z,98071.97
2023-05-12T23:25:38.532Z,98063.41
2023-05-12T23:28:04.953Z,98070.84
2023-05-12T23:30:31.325Z,98067.84
2023-05-12T23:32:57.752Z,98071.81
2023-05-12T23:35:24.160Z,98069.06
2023-05-12T23:37:50.486Z,98072.47
2023-05-12T23:40:16.838Z,98068.66
2023-05-12T23:42:43.149Z,98064.84
2023-05-12T23:45:12.125Z,98072.28
2023-05-12T23:47:38.463Z,98064.19
2023-05-12T23:50:07.918Z,98058.03
2023-05-12T23:52:35.640Z,98062.81
2023-05-12T23:55:02.029Z,98069.44
2023-05-12T23:57:28.393Z,98058.22
2023-05-12T23:59:54.720Z,98067.47
